Time;durP1;ratioP1;P1;durP2;ratioP2;P2;SDS_P1;SDS_P2;PMS_P1;PMS_P2;Temp;Humidity;BMP_temperature;BMP_pressure;BME280_temperature;BME280_humidity;BME280_pressure;Samples;Min_cycle;Max_cycle;Signal;HPM_P1;HPM_P2
2022/07/11 00:02:14;;;;;;;10.75;5.25;;;;;;;;;;5007958;28;20677;-73
2022/07/11 00:04:39;;;;;;;8.70;5.20;;;;;;;;;;5014581;28;20209;-73
2022/07/11 00:07:05;;;;;;;10.88;5.45;;;;;;;;;;5005230;28;20649;-72
2022/07/11 00:09:31;;;;;;;15.32;6.70;;;;;;;;;;5009451;28;20685;-72
2022/07/11 00:11:56;;;;;;;8.10;5.40;;;;;;;;;;5005070;28;20498;-72
2022/07/11 00:14:22;;;;;;;14.48;6.60;;;;;;;;;;5004682;28;20204;-72
2022/07/11 00:16:48;;;;;;;12.75;5.70;;;;;;;;;;5013089;28;20201;-73
2022/07/11 00:19:13;;;;;;;8.55;5.13;;;;;;;;;;5007549;28;20183;-72
2022/07/11 00:21:38;;;;;;;8.65;4.97;;;;;;;;;;5023946;28;20321;-72
2022/07/11 00:24:03;;;;;;;11.75;5.60;;;;;;;;;;4991399;28;20223;-72
2022/07/11 00:26:29;;;;;;;8.93;5.25;;;;;;;;;;5011996;28;20256;-73
2022/07/11 00:28:54;;;;;;;13.30;5.60;;;;;;;;;;5013714;28;20668;-73
2022/07/11 00:31:19;;;;;;;11.30;6.00;;;;;;;;;;5015569;28;20186;-73
2022/07/11 00:33:45;;;;;;;8.32;5.47;;;;;;;;;;5010887;28;20218;-73
2022/07/11 00:36:10;;;;;;;8.35;5.03;;;;;;;;;;5008642;28;20281;-73
2022/07/11 00:38:35;;;;;;;7.82;4.60;;;;;;;;;;5010159;28;20269;-73
2022/07/11 00:41:01;;;;;;;6.85;5.00;;;;;;;;;;5009904;28;20207;-73
2022/07/11 00:43:36;;;;;;;7.20;4.57;;;;;;;;;;5007806;28;20222;-73
2022/07/11 00:46:02;;;;;;;8.38;5.03;;;;;;;;;;4992567;28;20189;-73
2022/07/11 00:48:27;;;;;;;10.30;5.13;;;;;;;;;;5007673;28;20171;-73
2022/07/11 00:50:53;;;;;;;7.15;4.72;;;;;;;;;;5004684;28;20172;-73
2022/07/11 00:53:18;;;;;;;7.03;4.50;;;;;;;;;;5009866;28;20239;-73
2022/07/11 00:55:44;;;;;;;8.63;5.10;;;;;;;;;;4995730;28;20184;-73
2022/07/11 00:58:09;;;;;;;15.57;5.13;;;;;;;;;;4995854;28;20236;-73
2022/07/11 01:00:34;;;;;;;9.70;4.55;;;;;;;;;;5013774;28;20194;-73
2022/07/11 01:02:59;;;;;;;7.75;4.15;;;;;;;;;;5010276;28;20202;-73
2022/07/11 01:05:24;;;;;;;8.80;3.65;;;;;;;;;;4984767;28;20270;-73
2022/07/11 01:07:50;;;;;;;5.57;3.72;;;;;;;;;;4991402;28;20666;-73
2022/07/11 01:10:15;;;;;;;5.78;3.58;;;;;;;;;;5007925;28;20175;-73
2022/07/11 01:12:40;;;;;;;8.77;4.68;;;;;;;;;;5020013;28;20679;-73
2022/07/11 01:15:07;;;;;;;5.45;3.47;;;;;;;;;;5018831;28;20288;-73
2022/07/11 01:17:32;;;;;;;8.57;4.05;;;;;;;;;;5000486;28;20306;-74
2022/07/11 01:19:58;;;;;;;6.05;3.90;;;;;;;;;;4985821;28;20770;-73
2022/07/11 01:22:24;;;;;;;7.00;3.20;;;;;;;;;;5009451;28;20214;-73
2022/07/11 01:24:49;;;;;;;4.15;2.67;;;;;;;;;;5006078;28;20816;-73
2022/07/11 01:27:15;;;;;;;6.60;2.90;;;;;;;;;;5010097;28;20171;-73
2022/07/11 01:29:40;;;;;;;5.93;3.42;;;;;;;;;;4997846;28;20233;-73
2022/07/11 01:32:07;;;;;;;6.03;3.05;;;;;;;;;;5008106;28;20785;-73
2022/07/11 01:34:32;;;;;;;6.30;3.03;;;;;;;;;;5004023;28;20760;-73
2022/07/11 01:36:58;;;;;;;6.85;2.60;;;;;;;;;;5011191;28;20297;-73
2022/07/11 01:39:23;;;;;;;4.80;2.90;;;;;;;;;;5011020;28;20179;-73
2022/07/11 01:41:48;;;;;;;8.45;2.75;;;;;;;;;;5018798;28;20660;-73
2022/07/11 01:44:13;;;;;;;6.07;2.88;;;;;;;;;;5002746;28;20211;-73
2022/07/11 01:46:38;;;;;;;7.03;2.60;;;;;;;;;;5016181;28;20178;-73
2022/07/11 01:49:03;;;;;;;3.72;2.50;;;;;;;;;;5009937;28;20942;-73
2022/07/11 01:51:29;;;;;;;5.35;2.63;;;;;;;;;;5009539;28;20194;-73
2022/07/11 01:53:55;;;;;;;5.25;2.53;;;;;;;;;;5006679;28;20278;-73
2022/07/11 01:56:21;;;;;;;4.13;2.22;;;;;;;;;;5015973;28;20182;-73
2022/07/11 01:58:46;;;;;;;4.20;2.22;;;;;;;;;;5008134;28;20656;-73
2022/07/11 02:01:11;;;;;;;4.95;2.08;;;;;;;;;;5017523;28;20731;-73
2022/07/11 02:03:37;;;;;;;4.23;2.00;;;;;;;;;;5007746;28;20628;-73
2022/07/11 02:06:02;;;;;;;3.78;1.90;;;;;;;;;;5015729;28;20423;-73
2022/07/11 02:08:28;;;;;;;5.32;2.17;;;;;;;;;;5018128;28;20687;-74
2022/07/11 02:10:53;;;;;;;6.65;1.95;;;;;;;;;;5022455;28;20175;-73
2022/07/11 02:13:20;;;;;;;6.82;2.20;;;;;;;;;;5010306;28;20206;-73
2022/07/11 02:15:46;;;;;;;4.22;1.58;;;;;;;;;;5012339;28;20615;-73
2022/07/11 02:18:11;;;;;;;4.45;1.77;;;;;;;;;;5007790;28;20274;-73
2022/07/11 02:20:41;;;;;;;2.00;1.30;;;;;;;;;;5011200;28;20731;-73
2022/07/11 02:23:07;;;;;;;4.93;1.63;;;;;;;;;;5002983;28;20702;-73
2022/07/11 02:25:32;;;;;;;3.60;2.10;;;;;;;;;;5017517;28;20232;-73
2022/07/11 02:27:57;;;;;;;3.65;2.25;;;;;;;;;;5017122;28;20221;-73
2022/07/11 02:30:23;;;;;;;3.33;2.08;;;;;;;;;;5019865;28;20694;-73
2022/07/11 02:32:49;;;;;;;2.35;1.70;;;;;;;;;;5012345;28;20179;-73
2022/07/11 02:35:14;;;;;;;1.92;1.40;;;;;;;;;;5010793;28;20203;-72
2022/07/11 02:37:39;;;;;;;2.97;1.75;;;;;;;;;;5012086;28;20226;-73
2022/07/11 02:40:05;;;;;;;3.05;2.00;;;;;;;;;;5015719;28;20179;-72
2022/07/11 02:42:30;;;;;;;4.30;2.13;;;;;;;;;;5005161;28;20207;-73
2022/07/11 02:44:55;;;;;;;3.55;1.95;;;;;;;;;;5009269;28;20831;-72
2022/07/11 02:47:20;;;;;;;3.90;1.90;;;;;;;;;;5024869;28;20261;-72
2022/07/11 02:49:47;;;;;;;4.47;2.00;;;;;;;;;;5018205;28;20191;-73
2022/07/11 02:52:13;;;;;;;4.13;2.22;;;;;;;;;;5003980;28;20569;-72
2022/07/11 02:54:38;;;;;;;2.40;1.83;;;;;;;;;;5010401;28;20290;-72
2022/07/11 02:57:04;;;;;;;3.22;2.40;;;;;;;;;;5010271;28;20561;-72
2022/07/11 02:59:29;;;;;;;4.53;3.03;;;;;;;;;;5011227;28;20183;-72
2022/07/11 03:01:54;;;;;;;4.95;3.00;;;;;;;;;;5007001;28;20341;-72
2022/07/11 03:04:19;;;;;;;4.32;2.78;;;;;;;;;;5005447;28;20213;-73
2022/07/11 03:06:45;;;;;;;8.00;2.50;;;;;;;;;;5007655;28;20186;-73
2022/07/11 03:09:10;;;;;;;4.50;2.60;;;;;;;;;;5018273;28;20660;-73
2022/07/11 03:11:35;;;;;;;3.85;2.53;;;;;;;;;;5011176;28;20198;-72
2022/07/11 03:14:01;;;;;;;4.15;2.58;;;;;;;;;;5023293;28;20768;-73
2022/07/11 03:16:27;;;;;;;5.20;2.58;;;;;;;;;;5009428;28;20183;-72
2022/07/11 03:18:52;;;;;;;7.30;2.33;;;;;;;;;;5013749;28;20186;-73
2022/07/11 03:21:17;;;;;;;4.80;2.63;;;;;;;;;;5010316;28;20717;-73
2022/07/11 03:23:42;;;;;;;3.15;2.40;;;;;;;;;;5008036;28;20261;-73
2022/07/11 03:26:07;;;;;;;3.92;2.60;;;;;;;;;;5019759;28;20186;-73
2022/07/11 03:28:33;;;;;;;5.30;2.47;;;;;;;;;;5014599;28;20187;-73
2022/07/11 03:30:58;;;;;;;7.18;3.20;;;;;;;;;;5010406;28;20175;-72
2022/07/11 03:33:23;;;;;;;4.05;2.50;;;;;;;;;;5009167;28;20211;-73
2022/07/11 03:35:49;;;;;;;3.75;2.10;;;;;;;;;;5008773;28;20234;-73
2022/07/11 03:38:17;;;;;;;6.03;2.50;;;;;;;;;;5016125;28;20691;-73
2022/07/11 03:40:42;;;;;;;4.97;2.40;;;;;;;;;;5019859;28;20191;-73
2022/07/11 03:43:08;;;;;;;7.85;2.95;;;;;;;;;;5014167;28;20244;-73
2022/07/11 03:45:33;;;;;;;3.67;2.90;;;;;;;;;;5018087;28;20188;-73
2022/07/11 03:47:59;;;;;;;7.32;3.45;;;;;;;;;;5014933;28;20649;-73
2022/07/11 03:50:24;;;;;;;4.13;2.90;;;;;;;;;;5010841;28;20702;-73
2022/07/11 03:52:49;;;;;;;3.20;2.83;;;;;;;;;;5010018;28;20225;-72
2022/07/11 03:55:14;;;;;;;3.42;2.80;;;;;;;;;;5008849;28;20206;-73
2022/07/11 03:57:39;;;;;;;4.85;3.17;;;;;;;;;;5011933;28;20194;-72
2022/07/11 04:00:06;;;;;;;5.18;3.30;;;;;;;;;;5015129;28;20261;-72
2022/07/11 04:02:32;;;;;;;5.43;3.63;;;;;;;;;;5019322;28;20206;-72
2022/07/11 04:04:57;;;;;;;8.85;4.03;;;;;;;;;;5010973;28;20726;-73
2022/07/11 04:07:22;;;;;;;6.90;3.65;;;;;;;;;;5016519;28;20179;-73
2022/07/11 04:09:47;;;;;;;6.63;4.00;;;;;;;;;;5017751;28;20175;-73
2022/07/11 04:12:12;;;;;;;6.43;4.47;;;;;;;;;;5014310;28;20191;-73
2022/07/11 04:14:37;;;;;;;7.78;4.78;;;;;;;;;;5017296;28;20446;-73
2022/07/11 04:17:03;;;;;;;8.80;6.18;;;;;;;;;;5009610;28;20175;-73
2022/07/11 04:19:28;;;;;;;9.23;5.70;;;;;;;;;;5016798;28;20185;-73
2022/07/11 04:21:53;;;;;;;10.93;9.15;;;;;;;;;;4994151;28;20199;-72
2022/07/11 04:24:19;;;;;;;13.38;10.30;;;;;;;;;;5010748;28;20244;-73
2022/07/11 04:26:44;;;;;;;14.82;11.65;;;;;;;;;;5012161;28;20227;-73
2022/07/11 04:29:09;;;;;;;16.27;11.63;;;;;;;;;;5017221;28;20708;-73
2022/07/11 04:31:34;;;;;;;16.58;12.23;;;;;;;;;;5026520;28;20620;-72
2022/07/11 04:33:59;;;;;;;16.52;12.35;;;;;;;;;;5009742;28;20223;-73
2022/07/11 04:36:25;;;;;;;16.13;11.23;;;;;;;;;;5021505;28;20214;-73
2022/07/11 04:38:50;;;;;;;16.92;11.60;;;;;;;;;;5026207;28;20439;-72
2022/07/11 04:41:15;;;;;;;16.67;12.68;;;;;;;;;;5011714;28;20183;-73
2022/07/11 04:43:40;;;;;;;16.40;12.18;;;;;;;;;;5012650;28;20222;-73
2022/07/11 04:46:06;;;;;;;19.55;13.38;;;;;;;;;;5013230;28;20187;-72
2022/07/11 04:48:31;;;;;;;18.63;13.50;;;;;;;;;;5014311;28;20213;-73
2022/07/11 04:50:57;;;;;;;18.73;12.75;;;;;;;;;;5007861;28;20184;-72
2022/07/11 04:53:22;;;;;;;17.08;12.60;;;;;;;;;;4999418;28;20210;-72
2022/07/11 04:55:47;;;;;;;17.83;13.27;;;;;;;;;;5013170;28;20175;-73
2022/07/11 04:58:12;;;;;;;19.88;13.80;;;;;;;;;;5016908;28;20205;-72
2022/07/11 05:00:38;;;;;;;21.33;14.35;;;;;;;;;;5012288;28;20183;-73
2022/07/11 05:03:03;;;;;;;23.30;14.70;;;;;;;;;;5008345;28;20281;-72
2022/07/11 05:05:28;;;;;;;18.48;13.63;;;;;;;;;;5012740;28;20182;-73
2022/07/11 05:07:53;;;;;;;23.45;14.68;;;;;;;;;;5011448;28;20183;-72
2022/07/11 05:10:19;;;;;;;19.55;14.77;;;;;;;;;;5015534;28;20266;-73
2022/07/11 05:12:44;;;;;;;19.52;14.05;;;;;;;;;;5010392;28;20182;-73
2022/07/11 05:15:09;;;;;;;22.30;14.63;;;;;;;;;;5012582;28;20182;-72
2022/07/11 05:17:35;;;;;;;24.05;15.73;;;;;;;;;;5007668;28;20175;-73
2022/07/11 05:20:00;;;;;;;21.40;14.05;;;;;;;;;;5013701;28;20189;-73
2022/07/11 05:22:25;;;;;;;19.75;14.25;;;;;;;;;;5015490;28;20589;-73
2022/07/11 05:24:51;;;;;;;21.00;14.60;;;;;;;;;;5013926;28;20627;-73
2022/07/11 05:27:16;;;;;;;18.30;14.70;;;;;;;;;;5015551;28;20189;-72
2022/07/11 05:29:41;;;;;;;18.02;13.48;;;;;;;;;;5000739;28;20183;-71
2022/07/11 05:32:07;;;;;;;18.75;13.85;;;;;;;;;;5019857;28;20214;-71
2022/07/11 05:34:32;;;;;;;17.17;13.43;;;;;;;;;;5015570;28;20591;-74
2022/07/11 05:36:57;;;;;;;23.20;14.00;;;;;;;;;;5021943;28;20190;-73
2022/07/11 05:39:23;;;;;;;19.63;13.25;;;;;;;;;;5022978;28;20270;-71
2022/07/11 05:41:51;;;;;;;17.67;12.45;;;;;;;;;;5008012;28;20632;-71
2022/07/11 05:44:17;;;;;;;15.10;11.10;;;;;;;;;;5011695;28;20699;-71
2022/07/11 05:46:43;;;;;;;14.43;11.30;;;;;;;;;;5018287;28;20272;-71
2022/07/11 05:49:08;;;;;;;15.63;10.27;;;;;;;;;;5023424;28;20178;-71
2022/07/11 05:51:33;;;;;;;15.50;11.20;;;;;;;;;;5006380;28;20179;-71
2022/07/11 05:53:59;;;;;;;15.53;10.60;;;;;;;;;;5007882;28;20198;-72
2022/07/11 05:56:25;;;;;;;14.10;10.20;;;;;;;;;;4989740;28;20468;-72
2022/07/11 05:58:51;;;;;;;16.85;10.30;;;;;;;;;;5000272;28;20184;-72
2022/07/11 06:01:16;;;;;;;15.68;9.65;;;;;;;;;;5013052;28;20178;-72
2022/07/11 06:03:42;;;;;;;16.07;9.87;;;;;;;;;;5005755;28;20676;-72
2022/07/11 06:06:07;;;;;;;14.80;9.10;;;;;;;;;;5005643;28;20432;-71
2022/07/11 06:08:41;;;;;;;11.83;8.33;;;;;;;;;;5000493;28;20226;-72
2022/07/11 06:11:07;;;;;;;13.10;8.80;;;;;;;;;;5019718;28;20445;-73
2022/07/11 06:13:32;;;;;;;15.30;8.63;;;;;;;;;;5017798;28;20218;-72
2022/07/11 06:15:58;;;;;;;10.15;7.80;;;;;;;;;;5009387;28;20193;-72
2022/07/11 06:18:23;;;;;;;11.48;8.30;;;;;;;;;;5008025;28;20615;-73
2022/07/11 06:20:49;;;;;;;13.15;7.93;;;;;;;;;;5000415;28;20262;-72
2022/07/11 06:23:14;;;;;;;10.65;7.78;;;;;;;;;;5010454;28;20223;-72
2022/07/11 06:25:39;;;;;;;10.40;7.90;;;;;;;;;;5013153;28;20645;-72
2022/07/11 06:28:04;;;;;;;7.07;5.77;;;;;;;;;;5017651;28;20201;-72
2022/07/11 06:30:30;;;;;;;8.55;7.00;;;;;;;;;;5017969;28;20435;-73
2022/07/11 06:32:56;;;;;;;10.35;7.28;;;;;;;;;;5008951;28;20241;-73
2022/07/11 06:35:21;;;;;;;9.23;6.72;;;;;;;;;;5015835;28;20186;-72
2022/07/11 06:37:47;;;;;;;6.43;5.88;;;;;;;;;;5010317;28;20277;-73
2022/07/11 06:40:12;;;;;;;5.53;4.90;;;;;;;;;;5010263;28;20586;-72
2022/07/11 06:42:37;;;;;;;7.18;5.18;;;;;;;;;;5014209;28;20202;-72
2022/07/11 06:45:03;;;;;;;6.97;5.20;;;;;;;;;;5011030;28;20194;-73
2022/07/11 06:47:28;;;;;;;7.20;4.57;;;;;;;;;;5008619;28;20194;-72
2022/07/11 06:49:53;;;;;;;7.63;6.10;;;;;;;;;;5008781;28;20190;-72
2022/07/11 06:52:18;;;;;;;7.23;4.80;;;;;;;;;;5011445;28;20413;-72
2022/07/11 06:54:43;;;;;;;6.55;4.30;;;;;;;;;;5016806;28;20431;-72
2022/07/11 06:57:09;;;;;;;4.57;4.00;;;;;;;;;;5019801;28;20204;-72
2022/07/11 06:59:34;;;;;;;7.00;3.90;;;;;;;;;;5014559;28;20174;-72
2022/07/11 07:01:59;;;;;;;4.30;3.53;;;;;;;;;;5007586;28;20495;-73
2022/07/11 07:04:24;;;;;;;4.68;3.13;;;;;;;;;;5016993;28;20190;-72
2022/07/11 07:06:50;;;;;;;6.65;3.75;;;;;;;;;;4992299;28;20175;-72
2022/07/11 07:09:15;;;;;;;9.02;6.78;;;;;;;;;;4993004;28;20180;-72
2022/07/11 07:11:40;;;;;;;6.07;3.92;;;;;;;;;;5002241;28;20190;-73
2022/07/11 07:14:05;;;;;;;5.78;3.53;;;;;;;;;;5012027;28;20194;-72
2022/07/11 07:16:31;;;;;;;3.20;2.90;;;;;;;;;;5019227;28;20453;-72
2022/07/11 07:18:56;;;;;;;6.25;2.70;;;;;;;;;;5014862;28;20545;-72
2022/07/11 07:21:21;;;;;;;6.88;2.70;;;;;;;;;;5011725;28;20653;-73
2022/07/11 07:23:46;;;;;;;4.65;3.00;;;;;;;;;;5019504;28;20253;-73
2022/07/11 07:26:12;;;;;;;3.03;2.50;;;;;;;;;;5012317;28;20179;-72
2022/07/11 07:28:38;;;;;;;3.60;2.30;;;;;;;;;;5007167;28;20794;-73
2022/07/11 07:31:04;;;;;;;2.88;2.13;;;;;;;;;;5011954;28;20195;-73
2022/07/11 07:33:29;;;;;;;2.33;2.08;;;;;;;;;;5012963;28;20246;-73
2022/07/11 07:35:54;;;;;;;2.83;2.10;;;;;;;;;;5011165;28;20209;-72
2022/07/11 07:38:19;;;;;;;4.37;2.00;;;;;;;;;;5013154;28;20194;-73
2022/07/11 07:40:45;;;;;;;3.35;1.55;;;;;;;;;;5010443;28;20767;-72
2022/07/11 07:43:10;;;;;;;3.83;1.83;;;;;;;;;;5009153;28;20736;-72
2022/07/11 07:45:35;;;;;;;1.97;1.77;;;;;;;;;;5016612;28;20438;-73
2022/07/11 07:48:00;;;;;;;3.92;1.80;;;;;;;;;;5009167;28;20451;-74
2022/07/11 07:50:25;;;;;;;3.72;1.63;;;;;;;;;;5016199;28;20175;-72
2022/07/11 07:52:50;;;;;;;2.95;1.50;;;;;;;;;;5011260;28;20652;-72
2022/07/11 07:55:16;;;;;;;2.63;1.45;;;;;;;;;;5009741;28;20585;-73
2022/07/11 07:57:41;;;;;;;2.30;1.50;;;;;;;;;;5003520;28;20687;-72
2022/07/11 08:02:51;;;;;;;2.85;1.67;;;;;;;;;;5003452;28;20482;-72
2022/07/11 08:05:17;;;;;;;1.45;1.17;;;;;;;;;;5013589;28;20175;-72
2022/07/11 08:07:42;;;;;;;2.28;1.35;;;;;;;;;;5009864;28;20614;-72
2022/07/11 08:10:08;;;;;;;2.23;1.27;;;;;;;;;;5009652;28;20185;-72
2022/07/11 08:12:33;;;;;;;1.77;1.20;;;;;;;;;;5016754;28;20570;-72
2022/07/11 08:14:58;;;;;;;2.92;1.40;;;;;;;;;;5009864;28;20723;-72
2022/07/11 08:17:23;;;;;;;1.23;1.07;;;;;;;;;;5011738;28;20180;-72
2022/07/11 08:19:49;;;;;;;1.50;1.40;;;;;;;;;;5007777;28;20421;-72
2022/07/11 08:22:14;;;;;;;2.93;1.30;;;;;;;;;;5014268;28;20206;-73
2022/07/11 08:24:39;;;;;;;1.65;1.30;;;;;;;;;;5018009;28;20478;-73
2022/07/11 08:27:04;;;;;;;1.40;1.23;;;;;;;;;;5012494;28;20619;-72
2022/07/11 08:29:29;;;;;;;3.22;2.42;;;;;;;;;;5012764;28;20419;-73
2022/07/11 08:31:54;;;;;;;1.80;1.70;;;;;;;;;;5008759;28;20189;-73
2022/07/11 08:34:20;;;;;;;3.23;1.80;;;;;;;;;;5013126;28;20507;-74
2022/07/11 08:36:45;;;;;;;3.73;1.80;;;;;;;;;;5013968;28;20789;-73
2022/07/11 08:39:10;;;;;;;3.10;1.60;;;;;;;;;;5025847;28;20411;-73
2022/07/11 08:41:42;;;;;;;3.73;1.80;;;;;;;;;;5023318;28;20186;-74
2022/07/11 08:44:07;;;;;;;2.33;1.77;;;;;;;;;;5016797;28;20462;-74
2022/07/11 08:46:33;;;;;;;2.63;1.42;;;;;;;;;;5020250;28;20214;-74
2022/07/11 08:48:59;;;;;;;3.05;1.58;;;;;;;;;;5022805;28;20432;-74
2022/07/11 08:51:27;;;;;;;1.73;1.40;;;;;;;;;;5022056;28;20178;-73
2022/07/11 08:53:52;;;;;;;2.05;1.42;;;;;;;;;;5014492;28;20671;-73
2022/07/11 08:56:18;;;;;;;3.13;1.27;;;;;;;;;;5025261;28;20255;-74
2022/07/11 08:58:45;;;;;;;3.42;1.70;;;;;;;;;;5023305;28;20233;-74
2022/07/11 09:01:10;;;;;;;1.85;1.55;;;;;;;;;;5026684;28;20232;-73
2022/07/11 09:03:36;;;;;;;2.00;1.55;;;;;;;;;;5003908;28;20684;-74
2022/07/11 09:06:02;;;;;;;5.45;1.80;;;;;;;;;;5013397;28;20811;-74
2022/07/11 09:08:28;;;;;;;2.00;1.80;;;;;;;;;;5005958;28;20290;-73
2022/07/11 09:10:53;;;;;;;2.33;1.92;;;;;;;;;;5014284;28;20563;-73
2022/07/11 09:13:18;;;;;;;2.22;2.03;;;;;;;;;;5001246;28;20195;-74
2022/07/11 09:15:45;;;;;;;2.27;1.83;;;;;;;;;;5011202;28;20564;-72
2022/07/11 09:18:25;;;;;;;2.13;1.63;;;;;;;;;;5012617;28;20439;-73
2022/07/11 09:26:20;;;;;;;1.33;1.10;;;;;;;;;;5013568;28;20560;-73
2022/07/11 09:28:58;;;;;;;1.27;1.17;;;;;;;;;;5008607;28;20171;-73
2022/07/11 09:31:26;;;;;;;1.15;0.82;;;;;;;;;;5010588;28;20186;-73
2022/07/11 09:33:58;;;;;;;1.60;0.98;;;;;;;;;;5013003;28;20233;-73
2022/07/11 09:36:32;;;;;;;1.33;1.23;;;;;;;;;;5002446;28;20186;-73
2022/07/11 09:38:58;;;;;;;1.10;0.93;;;;;;;;;;5009336;28;20209;-73
2022/07/11 09:41:24;;;;;;;1.15;0.90;;;;;;;;;;5010427;28;20584;-73
2022/07/11 09:43:50;;;;;;;1.02;0.88;;;;;;;;;;5012545;28;20257;-73
2022/07/11 09:46:18;;;;;;;1.00;0.90;;;;;;;;;;5009580;28;20183;-73
2022/07/11 09:48:44;;;;;;;1.45;1.00;;;;;;;;;;5012507;28;20186;-73
2022/07/11 09:51:18;;;;;;;2.00;0.82;;;;;;;;;;5010922;28;20222;-73
2022/07/11 09:53:59;;;;;;;0.90;0.77;;;;;;;;;;5007398;28;20241;-74
2022/07/11 09:56:25;;;;;;;0.70;0.70;;;;;;;;;;5009877;28;20672;-73
2022/07/11 09:58:58;;;;;;;0.77;0.65;;;;;;;;;;5007350;28;20634;-73
2022/07/11 10:01:23;;;;;;;2.25;0.63;;;;;;;;;;5006253;28;20202;-73
2022/07/11 10:03:49;;;;;;;1.00;0.82;;;;;;;;;;5006025;28;20274;-73
2022/07/11 10:06:14;;;;;;;0.90;0.70;;;;;;;;;;5009153;28;20175;-73
2022/07/11 10:08:39;;;;;;;1.07;0.57;;;;;;;;;;5006913;28;20502;-73
2022/07/11 10:11:04;;;;;;;2.15;0.88;;;;;;;;;;5008400;28;20421;-73
2022/07/11 10:13:29;;;;;;;0.77;0.67;;;;;;;;;;5005714;28;20214;-73
2022/07/11 10:15:57;;;;;;;1.52;0.70;;;;;;;;;;5011116;28;20218;-73
2022/07/11 10:18:42;;;;;;;0.73;0.73;;;;;;;;;;5010760;28;20195;-73
2022/07/11 10:21:11;;;;;;;0.73;0.70;;;;;;;;;;5009102;28;20790;-73
2022/07/11 10:23:56;;;;;;;0.63;0.52;;;;;;;;;;5007458;28;20237;-73
2022/07/11 10:26:26;;;;;;;0.57;0.38;;;;;;;;;;5008750;28;20178;-73
2022/07/11 10:28:55;;;;;;;0.90;0.50;;;;;;;;;;5003674;28;20653;-73
2022/07/11 10:31:21;;;;;;;0.80;0.57;;;;;;;;;;5011605;28;20174;-73
2022/07/11 10:34:00;;;;;;;0.65;0.50;;;;;;;;;;5020538;28;20214;-73
2022/07/11 10:36:29;;;;;;;1.33;0.50;;;;;;;;;;5007162;28;20193;-73
2022/07/11 10:39:12;;;;;;;1.60;0.50;;;;;;;;;;5024683;28;20279;-73
2022/07/11 10:41:38;;;;;;;0.85;0.60;;;;;;;;;;4999258;28;20602;-73
2022/07/11 10:44:03;;;;;;;1.02;0.77;;;;;;;;;;5018836;28;20220;-73
2022/07/11 10:46:29;;;;;;;1.38;0.50;;;;;;;;;;5019602;28;20198;-72
2022/07/11 10:49:15;;;;;;;1.30;0.60;;;;;;;;;;5019607;28;20175;-73
2022/07/11 10:51:41;;;;;;;0.73;0.60;;;;;;;;;;5020089;28;20257;-73
2022/07/11 10:54:19;;;;;;;0.40;0.38;;;;;;;;;;5025116;28;20226;-73
2022/07/11 10:57:08;;;;;;;0.45;0.32;;;;;;;;;;5017773;28;20178;-73
2022/07/11 10:59:33;;;;;;;0.30;0.20;;;;;;;;;;5021578;28;20167;-73
2022/07/11 11:02:10;;;;;;;1.63;0.50;;;;;;;;;;5015332;28;20245;-73
2022/07/11 11:04:47;;;;;;;0.95;0.38;;;;;;;;;;5019755;28;20746;-74
2022/07/11 11:07:28;;;;;;;0.17;0.17;;;;;;;;;;5003887;28;20178;-74
2022/07/11 11:09:53;;;;;;;0.52;0.40;;;;;;;;;;5007088;28;20199;-74
2022/07/11 11:12:18;;;;;;;0.97;0.30;;;;;;;;;;5009090;28;20186;-73
2022/07/11 11:14:43;;;;;;;1.20;0.30;;;;;;;;;;5012263;28;20445;-73
2022/07/11 11:17:27;;;;;;;0.35;0.25;;;;;;;;;;5016477;28;20190;-74
2022/07/11 11:19:52;;;;;;;0.22;0.20;;;;;;;;;;5005447;28;20625;-73
2022/07/11 11:22:21;;;;;;;1.50;0.30;;;;;;;;;;5004773;28;20249;-73
2022/07/11 11:24:48;;;;;;;1.00;0.30;;;;;;;;;;5015751;28;20216;-73
2022/07/11 11:27:15;;;;;;;0.43;0.28;;;;;;;;;;5011655;28;20197;-73
2022/07/11 11:29:41;;;;;;;0.50;0.38;;;;;;;;;;5002634;28;20258;-73
2022/07/11 11:32:06;;;;;;;0.40;0.30;;;;;;;;;;5011682;28;20270;-73
2022/07/11 11:34:32;;;;;;;0.40;0.40;;;;;;;;;;5009890;28;20215;-73
2022/07/11 11:36:59;;;;;;;0.90;0.50;;;;;;;;;;5009279;28;20194;-73
2022/07/11 11:39:25;;;;;;;0.52;0.30;;;;;;;;;;5003189;28;20183;-73
2022/07/11 11:41:51;;;;;;;1.05;0.40;;;;;;;;;;5009084;28;20199;-73
2022/07/11 11:44:16;;;;;;;0.52;0.43;;;;;;;;;;5010819;28;20199;-73
2022/07/11 11:46:41;;;;;;;0.80;0.33;;;;;;;;;;5005327;28;20563;-73
2022/07/11 11:49:06;;;;;;;1.60;0.30;;;;;;;;;;5014383;28;20452;-73
2022/07/11 11:51:32;;;;;;;0.53;0.33;;;;;;;;;;5012925;28;20424;-73
2022/07/11 11:53:59;;;;;;;0.77;0.40;;;;;;;;;;5008003;28;20592;-73
2022/07/11 11:56:28;;;;;;;0.55;0.30;;;;;;;;;;5002094;28;20245;-73
2022/07/11 11:58:55;;;;;;;0.30;0.30;;;;;;;;;;5007825;28;20568;-73
2022/07/11 12:01:24;;;;;;;0.52;0.20;;;;;;;;;;5006453;28;20179;-73
2022/07/11 12:03:54;;;;;;;0.40;0.10;;;;;;;;;;5009099;28;20675;-73
2022/07/11 12:06:29;;;;;;;0.17;0.17;;;;;;;;;;5008539;28;20609;-73
2022/07/11 12:08:58;;;;;;;0.43;0.20;;;;;;;;;;5006058;28;20207;-73
2022/07/11 12:11:23;;;;;;;0.22;0.20;;;;;;;;;;5002508;28;20277;-73
2022/07/11 12:13:54;;;;;;;0.97;0.30;;;;;;;;;;5007811;28;20205;-73
2022/07/11 12:19:03;;;;;;;1.02;0.20;;;;;;;;;;5008821;28;20617;-73
2022/07/11 12:21:29;;;;;;;0.20;0.20;;;;;;;;;;5005936;28;20176;-74
2022/07/11 12:24:09;;;;;;;1.23;0.38;;;;;;;;;;5009352;28;20274;-74
2022/07/11 12:26:35;;;;;;;0.20;0.10;;;;;;;;;;5015544;28;20476;-73
2022/07/11 12:29:07;;;;;;;0.73;0.20;;;;;;;;;;5008179;28;20561;-74
2022/07/11 12:31:59;;;;;;;0.77;0.20;;;;;;;;;;5006433;28;20178;-73
2022/07/11 12:34:30;;;;;;;0.63;0.30;;;;;;;;;;5011603;28;20218;-73
2022/07/11 12:37:05;;;;;;;0.90;0.30;;;;;;;;;;5025309;28;20175;-73
2022/07/11 12:39:30;;;;;;;0.88;0.40;;;;;;;;;;5018996;28;20555;-74
2022/07/11 12:41:57;;;;;;;0.25;0.25;;;;;;;;;;5024537;28;20194;-74
2022/07/11 12:47:07;;;;;;;0.30;0.20;;;;;;;;;;5014988;28;20185;-73
2022/07/11 12:49:33;;;;;;;0.28;0.22;;;;;;;;;;5013097;28;20183;-74
2022/07/11 12:51:58;;;;;;;1.27;0.47;;;;;;;;;;5025293;28;20213;-73
2022/07/11 12:54:28;;;;;;;0.40;0.30;;;;;;;;;;5017601;28;20199;-73
2022/07/11 12:56:54;;;;;;;0.30;0.20;;;;;;;;;;5025399;28;20175;-73
2022/07/11 12:59:20;;;;;;;0.57;0.40;;;;;;;;;;5022624;28;20555;-74
2022/07/11 13:01:55;;;;;;;2.70;0.40;;;;;;;;;;5009036;28;20171;-74
2022/07/11 13:04:38;;;;;;;0.55;0.30;;;;;;;;;;5010826;28;20198;-73
2022/07/11 13:10:03;;;;;;;2.08;0.30;;;;;;;;;;5001232;28;20709;-73
2022/07/11 13:12:28;;;;;;;0.63;0.22;;;;;;;;;;5002655;28;20266;-73
2022/07/11 13:15:08;;;;;;;1.47;0.30;;;;;;;;;;5011988;28;20213;-73
2022/07/11 13:17:34;;;;;;;0.95;0.38;;;;;;;;;;5005181;28;20641;-74
2022/07/11 13:19:59;;;;;;;0.70;0.20;;;;;;;;;;5011927;28;20183;-74
2022/07/11 13:22:24;;;;;;;0.70;0.17;;;;;;;;;;5009410;28;20471;-73
2022/07/11 13:24:50;;;;;;;1.07;0.40;;;;;;;;;;5006371;28;20202;-73
2022/07/11 13:27:15;;;;;;;0.38;0.20;;;;;;;;;;5009168;28;20431;-73
2022/07/11 13:29:40;;;;;;;0.40;0.20;;;;;;;;;;5007713;28;20216;-73
2022/07/11 13:32:06;;;;;;;0.40;0.30;;;;;;;;;;5020431;28;20205;-73
2022/07/11 13:34:31;;;;;;;1.05;0.40;;;;;;;;;;5010682;28;20467;-73
2022/07/11 13:36:57;;;;;;;1.13;0.40;;;;;;;;;;5011846;28;20197;-73
2022/07/11 13:39:22;;;;;;;0.52;0.25;;;;;;;;;;5012292;28;20626;-74
2022/07/11 13:41:47;;;;;;;1.40;0.40;;;;;;;;;;5005024;28;20183;-74
2022/07/11 13:44:12;;;;;;;1.53;0.30;;;;;;;;;;5011758;28;20222;-74
2022/07/11 13:46:38;;;;;;;2.20;0.30;;;;;;;;;;5012490;28;20181;-73
2022/07/11 13:49:03;;;;;;;0.63;0.40;;;;;;;;;;5013650;28;20552;-74
2022/07/11 13:51:28;;;;;;;1.50;0.20;;;;;;;;;;5021253;28;20202;-74
2022/07/11 13:53:53;;;;;;;1.00;0.20;;;;;;;;;;5009714;28;20538;-74
2022/07/11 13:56:18;;;;;;;0.75;0.25;;;;;;;;;;5009452;28;20533;-73
2022/07/11 13:58:44;;;;;;;2.23;0.30;;;;;;;;;;5007702;28;20190;-73
2022/07/11 14:01:09;;;;;;;0.43;0.20;;;;;;;;;;5006558;28;20934;-73
2022/07/11 14:03:34;;;;;;;4.13;0.38;;;;;;;;;;5012393;28;20210;-73
2022/07/11 14:05:59;;;;;;;1.33;0.30;;;;;;;;;;5011954;28;20556;-73
2022/07/11 14:08:25;;;;;;;0.13;0.10;;;;;;;;;;5013276;28;20177;-74
2022/07/11 14:10:50;;;;;;;0.75;0.20;;;;;;;;;;5010333;28;20870;-73
2022/07/11 14:13:15;;;;;;;0.95;0.30;;;;;;;;;;5016004;28;20248;-73
2022/07/11 14:15:42;;;;;;;0.63;0.30;;;;;;;;;;5014254;28;20212;-73
2022/07/11 14:18:07;;;;;;;0.73;0.20;;;;;;;;;;5010214;28;20194;-73
2022/07/11 14:20:32;;;;;;;0.30;0.20;;;;;;;;;;5011029;28;20617;-74
2022/07/11 14:22:57;;;;;;;0.40;0.20;;;;;;;;;;5008853;28;20211;-74
2022/07/11 14:25:23;;;;;;;0.85;0.20;;;;;;;;;;5012005;28;20293;-72
2022/07/11 14:27:49;;;;;;;0.47;0.20;;;;;;;;;;5006370;28;20302;-73
2022/07/11 14:30:14;;;;;;;1.10;0.37;;;;;;;;;;5013358;28;20864;-73
2022/07/11 14:32:39;;;;;;;1.70;0.50;;;;;;;;;;5011230;28;20866;-73
2022/07/11 14:35:04;;;;;;;0.57;0.20;;;;;;;;;;5015573;28;20216;-73
2022/07/11 14:37:30;;;;;;;0.63;0.30;;;;;;;;;;5020808;28;20179;-73
2022/07/11 14:39:55;;;;;;;1.08;0.20;;;;;;;;;;5021878;28;20210;-73
2022/07/11 14:42:20;;;;;;;1.40;0.27;;;;;;;;;;5019387;28;20280;-73
2022/07/11 14:44:45;;;;;;;2.23;0.50;;;;;;;;;;5027059;28;20281;-73
2022/07/11 14:47:10;;;;;;;1.20;0.40;;;;;;;;;;5017536;28;20253;-73
2022/07/11 14:49:37;;;;;;;0.63;0.30;;;;;;;;;;5013875;28;20457;-72
2022/07/11 14:52:03;;;;;;;1.83;0.30;;;;;;;;;;5013088;28;20216;-73